createdAt,value
2019-04-29T00:00:54.422Z,7.50
2019-04-29T00:03:24.112Z,6.33
2019-04-29T00:05:54.468Z,7.27
2019-04-29T00:08:24.111Z,5.60
2019-04-29T00:10:53.407Z,8.33
2019-04-29T00:13:22.942Z,6.73
2019-04-29T00:16:16.816Z,5.83
2019-04-29T00:19:14.394Z,7.10
2019-04-29T00:21:43.962Z,7.63
2019-04-29T00:24:13.390Z,8.73
2019-04-29T00:26:42.924Z,6.20
2019-04-29T00:29:12.320Z,6.43
2019-04-29T00:31:41.883Z,7.03
2019-04-29T00:34:11.249Z,7.93
2019-04-29T00:36:50.945Z,5.57
2019-04-29T00:39:38.321Z,5.00
2019-04-29T00:42:25.798Z,6.37
2019-04-29T00:44:54.914Z,5.33
2019-04-29T00:47:24.154Z,8.70
2019-04-29T00:49:53.695Z,9.90
2019-04-29T00:52:23.008Z,7.57
2019-04-29T00:54:58.253Z,7.73
2019-04-29T00:57:27.733Z,5.30
2019-04-29T00:59:57.032Z,4.93
2019-04-29T01:02:26.538Z,8.07
2019-04-29T01:04:55.653Z,7.07
2019-04-29T01:07:25.134Z,6.63
2019-04-29T01:09:54.809Z,6.63
2019-04-29T01:12:24.448Z,5.37
2019-04-29T01:14:53.679Z,5.67
2019-04-29T01:17:23.157Z,6.07
2019-04-29T01:19:52.374Z,5.87
2019-04-29T01:22:21.903Z,6.63
2019-04-29T01:24:51.152Z,7.70
2019-04-29T01:27:34.582Z,5.87
2019-04-29T01:30:04.282Z,6.73
2019-04-29T01:32:33.796Z,5.80
2019-04-29T01:35:03.147Z,6.10
2019-04-29T01:37:43.347Z,7.20
2019-04-29T01:40:31.291Z,5.83
2019-04-29T01:43:00.895Z,5.67
2019-04-29T01:45:30.195Z,6.40
2019-04-29T01:47:59.687Z,6.07
2019-04-29T01:50:29.047Z,8.80
2019-04-29T01:52:58.189Z,8.67
2019-04-29T01:55:28.015Z,8.93
2019-04-29T01:57:57.302Z,8.43
2019-04-29T02:00:26.632Z,7.27
2019-04-29T02:02:56.076Z,6.47
2019-04-29T02:05:26.157Z,5.80
2019-04-29T02:07:55.970Z,7.20
2019-04-29T02:10:30.646Z,9.07
2019-04-29T02:13:00.151Z,6.77
2019-04-29T02:15:29.809Z,6.07
2019-04-29T02:17:58.910Z,7.33
2019-04-29T02:20:28.054Z,8.03
2019-04-29T02:23:14.959Z,8.13
2019-04-29T02:25:45.006Z,8.13
2019-04-29T02:28:14.291Z,8.03
2019-04-29T02:30:45.115Z,7.53
2019-04-29T02:33:14.525Z,7.63
2019-04-29T02:35:43.740Z,9.70
2019-04-29T02:38:20.595Z,11.10
2019-04-29T02:41:02.102Z,7.70
2019-04-29T02:43:32.695Z,8.13
2019-04-29T02:46:02.030Z,7.30
2019-04-29T02:48:34.503Z,8.23
2019-04-29T02:51:02.940Z,8.67
2019-04-29T02:53:32.493Z,8.23
2019-04-29T02:56:02.053Z,6.47
2019-04-29T02:58:39.816Z,12.03
2019-04-29T03:01:32.929Z,7.83
2019-04-29T03:04:10.358Z,8.27
2019-04-29T03:06:39.623Z,10.27
2019-04-29T03:09:09.553Z,9.70
2019-04-29T03:11:39.153Z,10.43
2019-04-29T03:14:08.883Z,10.37
2019-04-29T03:16:39.093Z,8.67
2019-04-29T03:19:13.690Z,8.87
2019-04-29T03:22:03.577Z,8.07
2019-04-29T03:24:32.963Z,11.83
2019-04-29T03:27:02.408Z,8.53
2019-04-29T03:29:31.996Z,8.20
2019-04-29T03:32:01.461Z,10.73
2019-04-29T03:34:32.216Z,9.63
2019-04-29T03:37:01.805Z,14.83
2019-04-29T03:39:31.545Z,11.33
2019-04-29T03:42:01.226Z,10.60
2019-04-29T03:44:30.472Z,10.97
2019-04-29T03:47:00.257Z,12.13
2019-04-29T03:49:29.557Z,11.27
2019-04-29T03:51:59.666Z,9.53
2019-04-29T03:54:28.855Z,12.37
2019-04-29T03:56:58.370Z,10.60
2019-04-29T03:59:27.765Z,7.77
2019-04-29T04:02:15.289Z,13.80
2019-04-29T04:05:04.457Z,9.83
2019-04-29T04:07:45.099Z,12.87
2019-04-29T04:10:14.528Z,15.40
2019-04-29T04:12:43.836Z,22.37
2019-04-29T04:15:13.536Z,22.60
2019-04-29T04:18:05.059Z,32.87
2019-04-29T04:20:36.505Z,48.27
2019-04-29T04:23:05.830Z,62.33
2019-04-29T04:25:35.318Z,62.03
2019-04-29T04:28:04.827Z,72.60
2019-04-29T04:30:34.085Z,51.97
2019-04-29T04:33:03.522Z,63.80
2019-04-29T04:35:32.703Z,55.50
2019-04-29T04:38:02.222Z,88.20
2019-04-29T04:40:35.613Z,86.20
2019-04-29T04:43:04.904Z,69.87
2019-04-29T04:45:34.288Z,58.80
2019-04-29T04:48:03.518Z,57.83
2019-04-29T04:50:32.971Z,105.63
2019-04-29T04:53:02.252Z,51.03
2019-04-29T04:55:33.858Z,60.47
2019-04-29T04:58:03.419Z,57.00
2019-04-29T05:00:34.596Z,29.30
2019-04-29T05:03:04.005Z,43.80
2019-04-29T05:05:33.893Z,42.80
2019-04-29T05:08:03.300Z,45.33
2019-04-29T05:10:32.954Z,64.17
2019-04-29T05:13:02.294Z,35.23
2019-04-29T05:15:31.526Z,25.97
2019-04-29T05:18:00.856Z,29.33
2019-04-29T05:20:30.262Z,34.00
2019-04-29T05:22:59.637Z,32.70
2019-04-29T05:25:33.124Z,23.10
2019-04-29T05:28:02.745Z,27.47
2019-04-29T05:30:32.314Z,22.30
2019-04-29T05:33:01.359Z,20.77
2019-04-29T05:36:02.065Z,16.40
2019-04-29T05:38:45.622Z,10.00
2019-04-29T05:41:15.097Z,9.43
2019-04-29T05:44:09.212Z,7.93
2019-04-29T05:46:51.181Z,7.63
2019-04-29T05:49:25.086Z,7.07
2019-04-29T05:52:01.988Z,7.70
2019-04-29T05:54:33.351Z,7.90
2019-04-29T05:57:02.523Z,8.63
2019-04-29T05:59:31.991Z,8.63
2019-04-29T06:02:01.358Z,8.40
2019-04-29T06:04:30.518Z,8.30
2019-04-29T06:06:59.793Z,8.20
2019-04-29T06:09:29.093Z,8.23
2019-04-29T06:11:58.316Z,9.93
2019-04-29T06:14:27.601Z,7.97
2019-04-29T06:16:57.590Z,7.90
2019-04-29T06:19:27.945Z,10.37
2019-04-29T06:21:57.172Z,8.50
2019-04-29T06:24:26.551Z,8.67
2019-04-29T06:26:55.850Z,10.97
2019-04-29T06:29:26.513Z,8.87
2019-04-29T06:31:55.825Z,8.93
2019-04-29T06:34:25.050Z,8.90
2019-04-29T06:36:54.258Z,10.23
2019-04-29T06:39:23.692Z,10.80
2019-04-29T06:41:53.162Z,11.37
2019-04-29T06:44:22.923Z,11.37
2019-04-29T06:46:54.407Z,12.23
2019-04-29T06:49:23.227Z,11.57
2019-04-29T06:51:52.900Z,10.60
2019-04-29T06:54:22.126Z,11.33
2019-04-29T06:56:51.406Z,10.10
2019-04-29T06:59:20.926Z,11.33
2019-04-29T07:01:50.222Z,10.00
2019-04-29T07:04:19.450Z,10.63
2019-04-29T07:06:57.106Z,10.87
2019-04-29T07:09:19.763Z,10.57
2019-04-29T07:11:49.075Z,10.63
2019-04-29T07:14:18.389Z,11.60
2019-04-29T07:16:47.648Z,11.10
2019-04-29T07:19:16.816Z,11.27
2019-04-29T07:21:47.425Z,11.10
2019-04-29T07:24:20.310Z,12.37
2019-04-29T07:26:49.264Z,11.57
2019-04-29T07:29:18.738Z,11.13
2019-04-29T07:31:48.275Z,11.13
2019-04-29T07:34:17.456Z,12.27
2019-04-29T07:36:46.917Z,17.73
2019-04-29T07:39:16.193Z,21.80
2019-04-29T07:41:45.592Z,20.60
2019-04-29T07:44:18.303Z,20.97
2019-04-29T07:46:56.871Z,21.10
2019-04-29T07:49:22.692Z,19.03
2019-04-29T07:51:51.793Z,18.60
2019-04-29T07:54:21.068Z,18.90
2019-04-29T07:56:50.567Z,18.70
2019-04-29T07:59:19.765Z,20.43
2019-04-29T08:01:48.871Z,20.47
2019-04-29T08:04:18.269Z,20.90
2019-04-29T08:06:47.561Z,19.07
2019-04-29T08:09:17.014Z,19.37
2019-04-29T08:11:46.203Z,20.17
2019-04-29T08:14:15.438Z,20.07
2019-04-29T08:16:45.014Z,20.37
2019-04-29T08:19:14.574Z,18.03
2019-04-29T08:21:45.488Z,17.97
2019-04-29T08:24:15.899Z,16.77
2019-04-29T08:26:47.609Z,15.90
2019-04-29T08:29:16.611Z,18.87
2019-04-29T08:31:47.171Z,18.57
2019-04-29T08:34:18.747Z,18.83
2019-04-29T08:36:47.188Z,17.53
2019-04-29T08:39:16.464Z,15.97
2019-04-29T08:41:45.526Z,15.23
2019-04-29T08:44:40.150Z,15.50
2019-04-29T08:47:17.008Z,14.07
2019-04-29T08:49:46.302Z,13.07
2019-04-29T08:52:15.701Z,13.40
2019-04-29T08:54:45.110Z,10.73
2019-04-29T08:57:14.817Z,9.53
2019-04-29T08:59:43.891Z,10.43
2019-04-29T09:02:13.444Z,9.60
2019-04-29T09:04:53.307Z,9.63
2019-04-29T09:07:17.501Z,10.63
2019-04-29T09:09:44.431Z,9.93
2019-04-29T09:12:13.795Z,10.27
2019-04-29T09:14:43.180Z,11.30
2019-04-29T09:17:20.340Z,10.57
2019-04-29T09:19:43.726Z,10.53
2019-04-29T09:22:14.760Z,9.67
2019-04-29T09:25:03.897Z,10.00
2019-04-29T09:27:33.490Z,9.03
2019-04-29T09:30:03.163Z,7.97
2019-04-29T09:32:33.977Z,7.87
2019-04-29T09:35:03.375Z,6.90
2019-04-29T09:37:32.497Z,7.70
2019-04-29T09:40:01.898Z,7.13
2019-04-29T09:42:57.275Z,6.37
2019-04-29T09:45:37.968Z,6.23
2019-04-29T09:48:07.463Z,7.33
2019-04-29T09:50:40.872Z,7.57
2019-04-29T09:53:09.933Z,6.83
2019-04-29T09:55:40.096Z,7.23
2019-04-29T09:58:10.014Z,7.17
2019-04-29T10:01:01.125Z,6.93
2019-04-29T10:03:43.676Z,6.80
2019-04-29T10:06:20.800Z,6.60
2019-04-29T10:08:50.182Z,8.10
2019-04-29T10:11:19.689Z,6.93
2019-04-29T10:13:49.102Z,7.27
2019-04-29T10:16:40.609Z,6.43
2019-04-29T10:19:27.720Z,8.00
2019-04-29T10:21:56.862Z,7.07
2019-04-29T10:24:27.091Z,6.47
2019-04-29T10:26:56.842Z,5.40
2019-04-29T10:29:27.509Z,5.33
2019-04-29T10:31:56.884Z,4.83
2019-04-29T10:34:26.926Z,5.97
2019-04-29T10:36:57.320Z,8.17
2019-04-29T10:39:42.087Z,7.07
2019-04-29T10:42:10.368Z,8.27
2019-04-29T10:45:01.465Z,6.07
2019-04-29T10:47:52.683Z,6.00
2019-04-29T10:50:28.845Z,7.27
2019-04-29T10:52:58.039Z,5.47
2019-04-29T10:55:30.071Z,6.10
2019-04-29T10:57:59.319Z,5.20
2019-04-29T11:00:52.750Z,5.23
2019-04-29T11:03:25.025Z,4.83
2019-04-29T11:06:00.358Z,5.30
2019-04-29T11:08:43.249Z,5.07
2019-04-29T11:11:22.744Z,6.77
2019-04-29T11:13:50.318Z,6.10
2019-04-29T11:16:17.370Z,7.47
2019-04-29T11:18:46.944Z,6.73
2019-04-29T11:21:16.366Z,5.40
2019-04-29T11:24:07.350Z,5.93
2019-04-29T11:27:11.624Z,5.87
2019-04-29T11:29:35.854Z,5.20
2019-04-29T11:32:10.892Z,6.10
2019-04-29T11:35:08.150Z,4.47
2019-04-29T11:37:37.641Z,4.97
2019-04-29T11:40:07.519Z,5.37
2019-04-29T11:42:41.332Z,7.40
2019-04-29T11:45:09.342Z,5.37
2019-04-29T11:47:38.740Z,5.20
2019-04-29T11:50:15.810Z,6.53
2019-04-29T11:52:44.900Z,5.73
2019-04-29T11:55:18.506Z,9.50
2019-04-29T11:57:50.672Z,5.80
2019-04-29T12:00:38.312Z,5.60
2019-04-29T12:03:14.455Z,4.40
2019-04-29T12:05:46.171Z,6.00
2019-04-29T12:08:17.318Z,6.23
2019-04-29T12:10:58.292Z,5.90
2019-04-29T12:13:28.221Z,6.07
2019-04-29T12:16:15.212Z,6.10
2019-04-29T12:18:54.058Z,6.33
2019-04-29T12:21:31.264Z,6.83
2019-04-29T12:24:01.596Z,6.47
2019-04-29T12:26:35.575Z,6.87
2019-04-29T12:29:02.227Z,7.17
2019-04-29T12:31:49.323Z,7.77
2019-04-29T12:34:55.731Z,7.90
2019-04-29T12:38:00.784Z,7.77
2019-04-29T12:40:50.231Z,7.73
2019-04-29T12:43:48.702Z,8.17
2019-04-29T12:46:29.186Z,9.10
2019-04-29T12:48:58.370Z,8.00
2019-04-29T12:51:28.048Z,7.73
2019-04-29T12:53:57.172Z,8.87
2019-04-29T12:56:35.058Z,9.67
2019-04-29T12:59:04.586Z,8.23
2019-04-29T13:02:02.338Z,8.83
2019-04-29T13:04:56.695Z,8.63
2019-04-29T13:07:45.251Z,9.17
2019-04-29T13:10:37.704Z,9.23
2019-04-29T13:13:15.638Z,9.33
2019-04-29T13:16:05.019Z,9.57
2019-04-29T13:18:42.273Z,9.07
2019-04-29T13:21:11.567Z,9.30
2019-04-29T13:23:53.721Z,10.33
2019-04-29T13:26:11.838Z,9.07
2019-04-29T13:28:58.939Z,9.70
2019-04-29T13:31:12.368Z,9.70
2019-04-29T13:33:41.764Z,9.37
2019-04-29T13:36:11.371Z,9.97
2019-04-29T13:38:40.979Z,10.30
2019-04-29T13:41:13.655Z,10.67
2019-04-29T13:43:41.017Z,9.03
2019-04-29T13:46:29.550Z,9.10
2019-04-29T13:49:17.010Z,8.83
2019-04-29T13:51:46.734Z,9.60
2019-04-29T13:54:16.003Z,8.90
2019-04-29T13:56:56.087Z,10.63
2019-04-29T13:59:21.469Z,10.10
2019-04-29T14:02:05.608Z,10.07
2019-04-29T14:04:34.585Z,10.60
2019-04-29T14:07:04.083Z,10.93
2019-04-29T14:09:35.081Z,10.63
2019-04-29T14:12:41.996Z,12.17
2019-04-29T14:14:35.981Z,11.57
2019-04-29T14:17:24.194Z,12.43
2019-04-29T14:19:42.286Z,12.13
2019-04-29T14:22:21.086Z,11.63
2019-04-29T14:24:39.048Z,12.53
2019-04-29T14:27:08.522Z,11.77
2019-04-29T14:29:37.814Z,11.33
2019-04-29T14:32:07.462Z,11.83
2019-04-29T14:34:45.313Z,11.80
2019-04-29T14:37:23.475Z,12.70
2019-04-29T14:39:45.808Z,12.33
2019-04-29T14:42:25.722Z,11.40
2019-04-29T14:45:19.609Z,12.53
2019-04-29T14:48:07.727Z,18.97
2019-04-29T14:50:37.225Z,17.13
2019-04-29T14:53:06.560Z,21.83
2019-04-29T14:55:35.968Z,19.60
2019-04-29T14:58:05.336Z,21.60
2019-04-29T15:01:05.782Z,19.93
2019-04-29T15:03:52.069Z,20.77
2019-04-29T15:06:22.057Z,22.57
2019-04-29T15:08:51.485Z,21.90
2019-04-29T15:11:31.412Z,20.77
2019-04-29T15:13:57.775Z,17.43
2019-04-29T15:16:34.835Z,22.97
2019-04-29T15:19:13.058Z,19.83
2019-04-29T15:21:49.431Z,17.03
2019-04-29T15:24:18.612Z,20.83
2019-04-29T15:26:48.185Z,19.67
2019-04-29T15:29:17.912Z,21.47
2019-04-29T15:31:48.987Z,21.37
2019-04-29T15:34:18.427Z,20.97
2019-04-29T15:36:47.782Z,23.53
2019-04-29T15:39:17.447Z,22.30
2019-04-29T15:41:48.097Z,21.97
2019-04-29T15:44:20.147Z,21.10
2019-04-29T15:46:48.438Z,19.40
2019-04-29T15:49:20.052Z,18.47
2019-04-29T15:51:49.332Z,20.33
2019-04-29T15:54:19.856Z,29.60
2019-04-29T15:56:49.561Z,29.57
2019-04-29T15:59:19.036Z,25.90
2019-04-29T16:01:48.223Z,20.83
2019-04-29T16:04:33.517Z,22.03
2019-04-29T16:07:19.602Z,22.27
2019-04-29T16:10:07.619Z,20.27
2019-04-29T16:12:45.385Z,20.33
2019-04-29T16:15:15.263Z,20.90
2019-04-29T16:17:44.883Z,20.87
2019-04-29T16:20:14.278Z,19.00
2019-04-29T16:22:43.725Z,29.77
2019-04-29T16:25:13.487Z,21.17
2019-04-29T16:27:51.530Z,21.63
2019-04-29T16:30:18.923Z,20.40
2019-04-29T16:32:47.497Z,22.00
2019-04-29T16:35:18.059Z,22.10
2019-04-29T16:37:47.670Z,23.97
2019-04-29T16:40:17.393Z,30.23
2019-04-29T16:43:05.632Z,30.33
2019-04-29T16:45:51.748Z,27.27
2019-04-29T16:48:16.166Z,26.73
2019-04-29T16:50:45.881Z,21.23
2019-04-29T16:53:15.374Z,21.00
2019-04-29T16:55:44.537Z,22.97
2019-04-29T16:58:18.092Z,22.43
2019-04-29T17:00:46.747Z,22.57
2019-04-29T17:03:16.586Z,24.97
2019-04-29T17:05:46.199Z,21.97
2019-04-29T17:08:17.426Z,23.50
2019-04-29T17:11:16.852Z,22.10
2019-04-29T17:13:43.471Z,22.00
2019-04-29T17:16:15.550Z,25.07
2019-04-29T17:18:44.728Z,29.80
2019-04-29T17:21:14.226Z,27.80
2019-04-29T17:23:43.533Z,25.30
2019-04-29T17:26:12.486Z,23.87
2019-04-29T17:28:51.254Z,22.43
2019-04-29T17:31:40.012Z,23.17
2019-04-29T17:34:29.196Z,23.47
2019-04-29T17:36:48.523Z,24.80
2019-04-29T17:39:18.558Z,23.20
2019-04-29T17:41:47.978Z,25.60
2019-04-29T17:44:28.129Z,22.83
2019-04-29T17:47:19.233Z,23.47
2019-04-29T17:50:08.692Z,22.93
2019-04-29T17:52:38.145Z,23.80
2019-04-29T17:55:16.306Z,22.10
2019-04-29T17:57:59.934Z,22.33
2019-04-29T18:00:56.243Z,22.83
2019-04-29T18:03:49.752Z,22.23
2019-04-29T18:06:26.451Z,22.03
2019-04-29T18:09:29.388Z,23.67
2019-04-29T18:12:00.255Z,24.33
2019-04-29T18:14:37.336Z,26.30
2019-04-29T18:17:01.280Z,24.00
2019-04-29T18:19:41.667Z,25.80
2019-04-29T18:22:32.620Z,24.50
2019-04-29T18:25:30.289Z,26.40
2019-04-29T18:27:53.500Z,25.37
2019-04-29T18:30:33.183Z,26.53
2019-04-29T18:32:55.107Z,26.87
2019-04-29T18:35:25.578Z,26.33
2019-04-29T18:37:55.728Z,26.40
2019-04-29T18:40:25.878Z,29.67
2019-04-29T18:42:55.481Z,26.93
2019-04-29T18:45:25.391Z,38.30
2019-04-29T18:47:56.091Z,30.27
2019-04-29T18:50:25.579Z,33.83
2019-04-29T18:52:56.090Z,32.03
2019-04-29T18:55:25.835Z,29.40
2019-04-29T18:57:58.192Z,56.17
2019-04-29T19:00:27.355Z,30.13
2019-04-29T19:02:59.984Z,31.97
2019-04-29T19:05:42.691Z,30.23
2019-04-29T19:08:15.021Z,34.87
2019-04-29T19:10:50.821Z,30.87
2019-04-29T19:13:17.387Z,32.10
2019-04-29T19:15:48.377Z,31.47
2019-04-29T19:18:21.130Z,30.30
2019-04-29T19:20:52.658Z,28.53
2019-04-29T19:23:22.345Z,30.13
2019-04-29T19:25:51.699Z,30.13
2019-04-29T19:28:29.349Z,31.43
2019-04-29T19:30:56.157Z,31.90
2019-04-29T19:33:25.245Z,28.97
2019-04-29T19:35:55.433Z,30.40
2019-04-29T19:38:25.325Z,31.63
2019-04-29T19:40:54.861Z,30.73
2019-04-29T19:43:25.741Z,30.33
2019-04-29T19:45:57.387Z,31.63
2019-04-29T19:48:27.240Z,33.13
2019-04-29T19:51:14.033Z,30.50
2019-04-29T19:53:28.517Z,31.63
2019-04-29T19:56:03.867Z,31.43
2019-04-29T19:58:31.838Z,35.43
2019-04-29T20:01:11.619Z,33.53
2019-04-29T20:03:37.676Z,33.37
2019-04-29T20:06:21.197Z,33.77
2019-04-29T20:08:53.678Z,40.53
2019-04-29T20:11:17.374Z,32.93
2019-04-29T20:13:58.336Z,33.97
2019-04-29T20:16:40.368Z,34.60
2019-04-29T20:19:16.580Z,40.73
2019-04-29T20:21:41.312Z,32.10
2019-04-29T20:24:15.142Z,32.53
2019-04-29T20:26:44.120Z,35.87
2019-04-29T20:29:12.970Z,35.80
2019-04-29T20:31:48.296Z,41.00
2019-04-29T20:34:13.549Z,37.47
2019-04-29T20:36:43.788Z,38.43
2019-04-29T20:39:16.995Z,35.07
2019-04-29T20:41:48.529Z,35.47
2019-04-29T20:44:16.335Z,47.40
2019-04-29T20:47:12.692Z,57.07
2019-04-29T20:49:17.087Z,37.10
2019-04-29T20:51:52.133Z,40.43
2019-04-29T20:54:22.094Z,46.83
2019-04-29T20:57:01.949Z,41.53
2019-04-29T20:59:22.997Z,38.20
2019-04-29T21:02:10.572Z,40.13
2019-04-29T21:04:33.474Z,40.43
2019-04-29T21:07:02.497Z,42.30
2019-04-29T21:09:30.427Z,41.30
2019-04-29T21:12:22.393Z,43.40
2019-04-29T21:14:56.928Z,42.10
2019-04-29T21:17:29.393Z,41.93
2019-04-29T21:19:56.615Z,40.87
2019-04-29T21:22:26.072Z,49.33
2019-04-29T21:24:55.408Z,46.13
2019-04-29T21:27:26.003Z,47.93
2019-04-29T21:29:55.480Z,39.60
2019-04-29T21:32:25.790Z,44.30
2019-04-29T21:35:10.201Z,45.13
2019-04-29T21:37:47.896Z,46.73
2019-04-29T21:40:32.585Z,48.23
2019-04-29T21:43:13.713Z,44.90
2019-04-29T21:45:44.963Z,47.77
2019-04-29T21:48:13.464Z,48.03
2019-04-29T21:50:44.805Z,49.17
2019-04-29T21:53:15.096Z,45.30
2019-04-29T21:55:45.781Z,48.90
2019-04-29T21:58:15.609Z,47.47
2019-04-29T22:00:45.472Z,49.17
2019-04-29T22:03:15.404Z,47.67
2019-04-29T22:05:45.206Z,49.27
2019-04-29T22:08:16.244Z,48.37
2019-04-29T22:10:45.294Z,48.00
2019-04-29T22:13:14.985Z,46.17
2019-04-29T22:15:45.555Z,45.63
2019-04-29T22:18:17.374Z,45.33
2019-04-29T22:20:46.143Z,47.73
2019-04-29T22:23:17.319Z,48.03
2019-04-29T22:25:47.327Z,45.10
2019-04-29T22:28:19.732Z,46.97
2019-04-29T22:30:49.884Z,46.73
2019-04-29T22:33:18.873Z,46.43
2019-04-29T22:35:48.490Z,43.57
2019-04-29T22:38:18.693Z,46.73
2019-04-29T22:40:48.736Z,43.97
2019-04-29T22:43:40.248Z,45.13
2019-04-29T22:46:10.657Z,47.00
2019-04-29T22:48:40.546Z,46.90
2019-04-29T22:51:15.254Z,51.87
2019-04-29T22:53:44.813Z,47.80
2019-04-29T22:56:14.086Z,50.77
2019-04-29T22:58:45.572Z,50.67
2019-04-29T23:01:15.644Z,52.73
2019-04-29T23:03:47.158Z,51.40
2019-04-29T23:06:16.640Z,52.00
2019-04-29T23:08:46.527Z,52.93
2019-04-29T23:11:16.004Z,55.07
2019-04-29T23:13:47.630Z,57.33
2019-04-29T23:16:16.814Z,51.40
2019-04-29T23:18:46.210Z,54.50
2019-04-29T23:21:43.274Z,51.93
2019-04-29T23:24:32.811Z,48.03
2019-04-29T23:27:02.195Z,52.00
2019-04-29T23:29:31.833Z,53.20
2019-04-29T23:32:04.709Z,47.23
2019-04-29T23:34:32.054Z,47.67
2019-04-29T23:37:01.373Z,40.50
2019-04-29T23:39:30.757Z,41.60
2019-04-29T23:42:04.686Z,51.30
2019-04-29T23:44:31.222Z,47.33
2019-04-29T23:47:00.452Z,55.40
2019-04-29T23:49:30.072Z,54.13
2019-04-29T23:52:02.392Z,50.53
2019-04-29T23:54:31.698Z,51.00
2019-04-29T23:57:23.437Z,56.33
